createdAt,value
2018-05-06T00:02:15.413Z,48.97
2018-05-06T00:04:43.693Z,48.68
2018-05-06T00:07:11.973Z,49.15
2018-05-06T00:09:40.250Z,48.86
2018-05-06T00:12:08.525Z,49.35
2018-05-06T00:14:36.809Z,49.45
2018-05-06T00:17:05.077Z,49.11
2018-05-06T00:19:33.362Z,48.74
2018-05-06T00:22:01.640Z,49.19
2018-05-06T00:24:29.921Z,49.45
2018-05-06T00:26:58.197Z,49.79
2018-05-06T00:29:26.485Z,49.94
2018-05-06T00:31:54.767Z,49.78
2018-05-06T00:34:23.038Z,50.36
2018-05-06T00:36:51.318Z,50.30
2018-05-06T00:39:19.652Z,51.18
2018-05-06T00:41:47.898Z,50.40
2018-05-06T00:44:16.169Z,50.25
2018-05-06T00:46:44.450Z,50.62
2018-05-06T00:49:12.723Z,51.38
2018-05-06T00:51:41.002Z,50.50
2018-05-06T00:57:13.961Z,50.86
2018-05-06T00:59:42.233Z,51.14
2018-05-06T01:02:10.517Z,52.25
2018-05-06T01:04:38.788Z,51.34
2018-05-06T01:07:07.061Z,51.91
2018-05-06T01:09:35.342Z,52.56
2018-05-06T01:12:03.609Z,52.35
2018-05-06T01:14:31.885Z,51.95
2018-05-06T01:17:00.154Z,52.94
2018-05-06T01:19:28.462Z,53.32
2018-05-06T01:21:56.733Z,53.22
2018-05-06T01:24:25.273Z,53.12
2018-05-06T01:26:53.539Z,53.57
2018-05-06T01:29:21.805Z,53.05
2018-05-06T01:31:50.078Z,52.73
2018-05-06T01:34:18.351Z,52.99
2018-05-06T01:36:46.621Z,54.12
2018-05-06T01:39:14.889Z,53.67
2018-05-06T01:41:43.166Z,54.03
2018-05-06T01:44:11.433Z,53.80
2018-05-06T01:46:39.710Z,54.09
2018-05-06T01:49:07.973Z,55.22
2018-05-06T01:51:36.273Z,55.81
2018-05-06T01:54:04.542Z,55.37
2018-05-06T01:56:32.821Z,54.95
2018-05-06T01:59:01.093Z,54.96
2018-05-06T02:01:29.370Z,54.88
2018-05-06T02:03:57.650Z,56.12
2018-05-06T02:06:25.924Z,55.84
2018-05-06T02:08:54.207Z,55.29
2018-05-06T02:11:22.477Z,55.46
2018-05-06T02:13:50.761Z,55.41
2018-05-06T02:16:19.032Z,55.08
2018-05-06T02:18:47.289Z,55.59
2018-05-06T02:21:15.570Z,56.63
2018-05-06T02:23:43.839Z,56.53
2018-05-06T02:26:12.117Z,55.87
2018-05-06T02:28:40.388Z,56.19
2018-05-06T02:31:09.038Z,56.88
2018-05-06T02:33:37.265Z,56.29
2018-05-06T02:36:05.533Z,56.99
2018-05-06T02:38:33.810Z,56.85
2018-05-06T02:41:02.078Z,56.86
2018-05-06T02:43:30.350Z,56.95
2018-05-06T02:45:58.621Z,57.04
2018-05-06T02:48:26.903Z,57.36
2018-05-06T02:50:55.181Z,56.52
2018-05-06T02:53:23.457Z,57.40
2018-05-06T02:55:51.731Z,57.39
2018-05-06T02:58:20.005Z,58.54
2018-05-06T03:00:48.285Z,59.41
2018-05-06T03:03:16.594Z,59.07
2018-05-06T03:05:44.873Z,59.34
2018-05-06T03:08:13.139Z,59.28
2018-05-06T03:10:41.420Z,59.51
2018-05-06T03:13:09.686Z,59.32
2018-05-06T03:15:37.958Z,59.28
2018-05-06T03:18:06.241Z,58.67
2018-05-06T03:20:34.506Z,58.90
2018-05-06T03:23:02.781Z,58.40
2018-05-06T03:25:31.046Z,59.11
2018-05-06T03:27:59.322Z,59.36
2018-05-06T03:30:27.590Z,58.39
2018-05-06T03:32:55.889Z,59.39
2018-05-06T03:35:24.162Z,59.62
2018-05-06T03:37:52.429Z,59.89
2018-05-06T03:40:20.712Z,59.67
2018-05-06T03:42:48.978Z,59.47
2018-05-06T03:45:17.253Z,59.73
2018-05-06T03:47:45.521Z,59.39
2018-05-06T03:50:13.801Z,59.51
2018-05-06T03:52:42.068Z,60.81
2018-05-06T03:55:10.350Z,60.18
2018-05-06T03:57:50.445Z,60.26
2018-05-06T04:00:30.620Z,60.72
2018-05-06T04:02:58.841Z,60.29
2018-05-06T04:05:27.105Z,59.96
2018-05-06T04:07:55.385Z,60.34
2018-05-06T04:10:23.657Z,60.60
2018-05-06T04:12:51.927Z,60.23
2018-05-06T04:15:20.193Z,61.43
2018-05-06T04:17:48.525Z,61.30
2018-05-06T04:20:16.793Z,60.79
2018-05-06T04:22:45.078Z,60.32
2018-05-06T04:25:13.345Z,60.75
2018-05-06T04:27:41.605Z,60.69
2018-05-06T04:30:09.877Z,60.75
2018-05-06T04:32:38.145Z,61.20
2018-05-06T04:35:06.418Z,62.49
2018-05-06T04:37:34.685Z,61.45
2018-05-06T04:40:02.981Z,61.22
2018-05-06T04:42:31.245Z,61.04
2018-05-06T04:44:59.542Z,61.88
2018-05-06T04:47:27.813Z,62.78
2018-05-06T04:49:56.085Z,62.71
2018-05-06T04:52:24.358Z,62.99
2018-05-06T04:54:52.623Z,63.21
2018-05-06T04:57:20.897Z,63.05
2018-05-06T04:59:49.169Z,63.52
2018-05-06T05:02:17.466Z,64.04
2018-05-06T05:04:45.733Z,64.02
2018-05-06T05:07:14.014Z,63.81
2018-05-06T05:09:42.285Z,63.33
2018-05-06T05:12:10.557Z,63.39
2018-05-06T05:14:38.830Z,63.58
2018-05-06T05:17:07.122Z,64.49
2018-05-06T05:19:35.365Z,63.65
2018-05-06T05:22:03.638Z,62.65
2018-05-06T05:24:32.977Z,63.53
2018-05-06T05:27:01.249Z,63.52
2018-05-06T05:29:29.521Z,62.88
2018-05-06T05:31:57.798Z,62.28
2018-05-06T05:34:26.080Z,62.29
2018-05-06T05:36:54.349Z,62.06
2018-05-06T05:39:22.624Z,62.11
2018-05-06T05:41:50.900Z,61.50
2018-05-06T05:44:19.165Z,61.78
2018-05-06T05:46:47.446Z,61.67
2018-05-06T05:49:15.726Z,61.79
2018-05-06T05:51:43.993Z,62.57
2018-05-06T05:54:12.271Z,61.06
2018-05-06T05:56:40.546Z,60.82
2018-05-06T05:59:08.821Z,60.40
2018-05-06T06:01:37.089Z,60.40
2018-05-06T06:04:05.374Z,60.79
2018-05-06T06:06:33.648Z,60.00
2018-05-06T06:09:02.278Z,59.10
2018-05-06T06:11:30.553Z,58.75
2018-05-06T06:13:58.823Z,58.58
2018-05-06T06:16:27.098Z,56.25
2018-05-06T06:18:55.362Z,57.58
2018-05-06T06:21:23.641Z,56.33
2018-05-06T06:23:51.906Z,55.39
2018-05-06T06:26:20.177Z,54.51
2018-05-06T06:28:48.442Z,53.30
2018-05-06T06:31:16.720Z,54.35
2018-05-06T06:33:44.985Z,52.89
2018-05-06T06:36:13.250Z,52.50
2018-05-06T06:38:41.530Z,53.23
2018-05-06T06:41:09.799Z,52.94
2018-05-06T06:43:38.093Z,52.51
2018-05-06T06:46:06.362Z,52.16
2018-05-06T06:48:34.642Z,50.40
2018-05-06T06:51:02.906Z,50.03
2018-05-06T06:53:31.182Z,49.59
2018-05-06T06:55:59.454Z,48.56
2018-05-06T06:58:27.719Z,47.80
2018-05-06T07:00:55.997Z,46.41
2018-05-06T07:03:24.261Z,46.92
2018-05-06T07:05:52.547Z,45.97
2018-05-06T07:08:20.802Z,45.96
2018-05-06T07:10:49.076Z,45.21
2018-05-06T07:13:17.342Z,43.70
2018-05-06T07:15:45.617Z,42.47
2018-05-06T07:18:13.892Z,41.92
2018-05-06T07:20:42.153Z,41.86
2018-05-06T07:23:10.431Z,42.26
2018-05-06T07:25:38.697Z,40.10
2018-05-06T07:28:06.983Z,39.66
2018-05-06T07:30:35.246Z,39.46
2018-05-06T07:33:03.566Z,36.67
2018-05-06T07:35:31.837Z,36.06
2018-05-06T07:38:00.093Z,35.75
2018-05-06T07:40:28.372Z,34.39
2018-05-06T07:42:56.725Z,35.56
2018-05-06T07:45:25.002Z,33.07
2018-05-06T07:47:53.393Z,35.33
2018-05-06T07:50:21.681Z,33.97
2018-05-06T07:52:49.957Z,34.27
2018-05-06T07:55:18.237Z,33.78
2018-05-06T07:57:46.501Z,32.99
2018-05-06T08:00:14.781Z,32.56
2018-05-06T08:02:43.053Z,32.85
2018-05-06T08:05:11.331Z,31.77
2018-05-06T08:07:40.090Z,31.18
2018-05-06T08:10:08.373Z,30.37
2018-05-06T08:12:36.650Z,30.44
2018-05-06T08:15:06.036Z,30.76
2018-05-06T08:17:34.314Z,30.64
2018-05-06T08:20:02.572Z,31.58
2018-05-06T08:22:30.842Z,30.43
2018-05-06T08:24:59.110Z,30.87
2018-05-06T08:27:28.373Z,31.85
2018-05-06T08:29:56.665Z,28.33
2018-05-06T08:32:24.945Z,30.09
2018-05-06T08:34:53.247Z,28.65
2018-05-06T08:37:21.486Z,27.85
2018-05-06T08:39:50.363Z,27.88
2018-05-06T08:42:18.633Z,27.61
2018-05-06T08:44:46.905Z,27.24
2018-05-06T08:47:15.169Z,27.93
2018-05-06T08:49:43.445Z,26.90
2018-05-06T08:52:11.705Z,26.86
2018-05-06T08:54:39.986Z,25.54
2018-05-06T08:57:08.254Z,25.90
2018-05-06T08:59:36.557Z,24.45
2018-05-06T09:02:05.108Z,24.27
2018-05-06T09:04:33.337Z,24.37
2018-05-06T09:07:01.610Z,25.28
2018-05-06T09:09:29.874Z,25.00
2018-05-06T09:11:58.192Z,24.82
2018-05-06T09:14:26.415Z,23.69
2018-05-06T09:16:54.933Z,23.81
2018-05-06T09:19:23.203Z,23.61
2018-05-06T09:21:51.469Z,23.30
2018-05-06T09:24:19.749Z,23.42
2018-05-06T09:26:48.018Z,23.31
2018-05-06T09:29:16.293Z,23.25
2018-05-06T09:31:44.553Z,23.19
2018-05-06T09:34:12.829Z,21.99
2018-05-06T09:36:41.098Z,21.50
2018-05-06T09:39:09.374Z,21.36
2018-05-06T09:41:37.642Z,20.76
2018-05-06T09:44:05.909Z,21.19
2018-05-06T09:46:34.189Z,20.54
2018-05-06T09:49:02.454Z,20.84
2018-05-06T09:51:30.731Z,20.83
2018-05-06T09:53:58.997Z,20.75
2018-05-06T09:56:27.267Z,20.67
2018-05-06T09:58:55.559Z,20.66
2018-05-06T10:01:23.831Z,21.77
2018-05-06T10:03:52.134Z,20.12
2018-05-06T10:06:20.413Z,19.49
2018-05-06T10:08:48.701Z,20.75
2018-05-06T10:11:16.948Z,19.49
2018-05-06T10:13:45.225Z,18.48
2018-05-06T10:16:13.489Z,19.94
2018-05-06T10:18:41.766Z,20.17
2018-05-06T10:21:10.038Z,19.23
2018-05-06T10:23:38.313Z,20.31
2018-05-06T10:26:06.621Z,19.82
2018-05-06T10:28:34.861Z,20.55
2018-05-06T10:31:03.126Z,19.80
2018-05-06T10:33:31.393Z,20.19
2018-05-06T10:35:59.665Z,19.87
2018-05-06T10:38:28.020Z,19.91
2018-05-06T10:40:56.217Z,21.00
2018-05-06T10:43:24.486Z,20.88
2018-05-06T10:45:52.765Z,21.65
2018-05-06T10:48:21.025Z,20.41
2018-05-06T10:50:49.310Z,21.10
2018-05-06T10:53:17.574Z,21.09
2018-05-06T10:55:45.837Z,21.25
2018-05-06T10:58:14.110Z,21.51
2018-05-06T11:00:42.374Z,20.94
2018-05-06T11:03:10.646Z,20.99
2018-05-06T11:05:38.914Z,21.68
2018-05-06T11:08:07.193Z,22.08
2018-05-06T11:10:35.460Z,21.99
2018-05-06T11:13:03.745Z,21.92
2018-05-06T11:15:32.008Z,21.91
2018-05-06T11:18:00.274Z,23.01
2018-05-06T11:20:28.546Z,23.04
2018-05-06T11:22:56.805Z,22.47
2018-05-06T11:25:25.081Z,21.52
2018-05-06T11:27:53.345Z,19.75
2018-05-06T11:30:21.621Z,21.04
2018-05-06T11:32:49.891Z,21.60
2018-05-06T11:35:18.166Z,20.89
2018-05-06T11:37:46.429Z,20.38
2018-05-06T11:40:14.705Z,21.67
2018-05-06T11:42:42.977Z,20.49
2018-05-06T11:45:11.241Z,20.67
2018-05-06T11:47:39.520Z,20.43
2018-05-06T11:50:07.781Z,20.30
2018-05-06T11:52:36.070Z,20.20
2018-05-06T11:55:04.342Z,19.71
2018-05-06T11:57:32.611Z,19.93
2018-05-06T12:00:00.891Z,18.58
2018-05-06T12:02:29.159Z,18.31
2018-05-06T12:04:57.430Z,19.97
2018-05-06T12:07:25.693Z,19.12
2018-05-06T12:09:54.015Z,18.90
2018-05-06T12:12:22.242Z,19.01
2018-05-06T12:14:50.530Z,18.15
2018-05-06T12:17:18.798Z,18.78
2018-05-06T12:19:47.126Z,18.87
2018-05-06T12:22:15.401Z,18.61
2018-05-06T12:24:43.666Z,18.49
2018-05-06T12:27:11.941Z,18.35
2018-05-06T12:29:40.214Z,18.32
2018-05-06T12:32:08.485Z,18.61
2018-05-06T12:34:36.749Z,18.12
2018-05-06T12:37:05.033Z,18.62
2018-05-06T12:39:33.302Z,18.06
2018-05-06T12:42:01.597Z,18.78
2018-05-06T12:44:29.866Z,19.76
2018-05-06T12:46:58.139Z,19.25
2018-05-06T12:49:26.498Z,19.76
2018-05-06T12:51:54.681Z,19.92
2018-05-06T12:54:22.957Z,19.72
2018-05-06T12:56:51.238Z,18.38
2018-05-06T12:59:19.520Z,18.81
2018-05-06T13:01:47.785Z,17.87
2018-05-06T13:04:16.054Z,18.99
2018-05-06T13:06:44.330Z,19.72
2018-05-06T13:09:12.605Z,18.42
2018-05-06T13:11:40.889Z,18.50
2018-05-06T13:14:09.210Z,19.10
2018-05-06T13:16:37.425Z,18.73
2018-05-06T13:19:05.694Z,19.54
2018-05-06T13:21:33.966Z,19.46
2018-05-06T13:24:02.295Z,19.21
2018-05-06T13:26:30.513Z,19.09
2018-05-06T13:28:58.782Z,19.46
2018-05-06T13:31:27.059Z,18.74
2018-05-06T13:33:55.322Z,19.40
2018-05-06T13:36:23.602Z,19.14
2018-05-06T13:38:51.873Z,18.86
2018-05-06T13:41:20.149Z,19.00
2018-05-06T13:43:48.425Z,19.23
2018-05-06T13:46:16.693Z,19.56
2018-05-06T13:48:44.966Z,19.57
2018-05-06T13:51:13.234Z,18.55
2018-05-06T13:53:41.517Z,18.78
2018-05-06T13:56:09.781Z,19.11
2018-05-06T13:58:38.057Z,18.19
2018-05-06T14:01:06.399Z,19.51
2018-05-06T14:03:34.626Z,19.75
2018-05-06T14:06:02.902Z,19.59
2018-05-06T14:08:31.169Z,19.37
2018-05-06T14:10:59.442Z,19.61
2018-05-06T14:13:27.710Z,19.60
2018-05-06T14:15:56.003Z,18.38
2018-05-06T14:18:24.253Z,19.65
2018-05-06T14:20:52.531Z,20.02
2018-05-06T14:23:20.797Z,20.00
2018-05-06T14:25:49.070Z,20.23
2018-05-06T14:28:17.341Z,19.47
2018-05-06T14:30:45.606Z,19.04
2018-05-06T14:33:13.881Z,20.32
2018-05-06T14:35:42.153Z,18.85
2018-05-06T14:38:10.434Z,19.75
2018-05-06T14:40:38.721Z,18.88
2018-05-06T14:43:07.001Z,19.38
2018-05-06T14:45:35.263Z,19.75
2018-05-06T14:48:14.146Z,19.17
2018-05-06T14:50:42.418Z,20.10
2018-05-06T14:53:10.688Z,19.64
2018-05-06T14:55:38.977Z,19.60
2018-05-06T14:58:07.228Z,19.96
2018-05-06T15:00:35.497Z,19.71
2018-05-06T15:03:03.769Z,20.12
2018-05-06T15:05:32.051Z,20.55
2018-05-06T15:08:00.320Z,19.67
2018-05-06T15:10:28.637Z,19.75
2018-05-06T15:12:56.865Z,20.66
2018-05-06T15:15:25.135Z,19.43
2018-05-06T15:17:53.407Z,19.65
2018-05-06T15:20:21.669Z,20.22
2018-05-06T15:22:49.946Z,20.15
2018-05-06T15:25:18.213Z,20.64
2018-05-06T15:27:46.485Z,20.27
2018-05-06T15:30:14.750Z,20.12
2018-05-06T15:32:43.042Z,19.88
2018-05-06T15:35:11.305Z,20.48
2018-05-06T15:37:39.574Z,20.75
2018-05-06T15:40:07.858Z,19.95
2018-05-06T15:42:36.133Z,21.10
2018-05-06T15:45:04.425Z,20.73
2018-05-06T15:47:32.925Z,21.11
2018-05-06T15:50:01.213Z,21.24
2018-05-06T15:52:29.482Z,21.09
2018-05-06T15:54:57.757Z,21.52
2018-05-06T15:57:26.021Z,21.40
2018-05-06T15:59:54.289Z,21.85
2018-05-06T16:02:53.067Z,22.25
2018-05-06T16:05:21.321Z,22.29
2018-05-06T16:07:49.593Z,21.89
2018-05-06T16:10:17.870Z,22.22
2018-05-06T16:12:46.138Z,22.30
2018-05-06T16:15:14.433Z,21.54
2018-05-06T16:17:43.076Z,21.85
2018-05-06T16:20:11.321Z,22.20
2018-05-06T16:22:39.604Z,22.51
2018-05-06T16:25:07.881Z,22.89
2018-05-06T16:27:36.149Z,22.44
2018-05-06T16:30:04.426Z,23.79
2018-05-06T16:32:32.691Z,23.32
2018-05-06T16:35:00.985Z,22.70
2018-05-06T16:37:29.273Z,23.12
2018-05-06T16:39:57.551Z,23.95
2018-05-06T16:42:25.837Z,23.34
2018-05-06T16:44:54.106Z,23.57
2018-05-06T16:47:22.389Z,22.93
2018-05-06T16:49:50.662Z,23.09
2018-05-06T16:52:18.934Z,22.86
2018-05-06T16:54:47.206Z,22.92
2018-05-06T16:57:15.613Z,23.48
2018-05-06T16:59:43.813Z,23.04
2018-05-06T17:02:12.085Z,23.75
2018-05-06T17:04:40.358Z,23.53
2018-05-06T17:07:08.628Z,24.53
2018-05-06T17:09:36.901Z,24.47
2018-05-06T17:12:05.169Z,24.06
2018-05-06T17:14:33.468Z,24.09
2018-05-06T17:17:01.730Z,23.43
2018-05-06T17:19:30.001Z,24.03
2018-05-06T17:21:58.320Z,23.62
2018-05-06T17:24:26.545Z,23.82
2018-05-06T17:26:54.815Z,24.17
2018-05-06T17:29:23.090Z,24.96
2018-05-06T17:31:51.358Z,24.88
2018-05-06T17:34:19.641Z,24.31
2018-05-06T17:36:47.909Z,25.05
2018-05-06T17:39:16.202Z,25.86
2018-05-06T17:41:44.486Z,25.97
2018-05-06T17:44:12.756Z,26.19
2018-05-06T17:46:41.026Z,25.22
2018-05-06T17:49:09.297Z,25.85
2018-05-06T17:51:37.634Z,25.76
2018-05-06T17:54:05.878Z,26.42
2018-05-06T17:56:34.159Z,26.07
2018-05-06T17:59:02.426Z,26.17
2018-05-06T18:01:30.729Z,26.39
2018-05-06T18:03:58.994Z,26.43
2018-05-06T18:06:27.269Z,26.16
2018-05-06T18:08:55.544Z,26.46
2018-05-06T18:11:23.810Z,27.01
2018-05-06T18:13:52.094Z,26.54
2018-05-06T18:16:20.366Z,26.69
2018-05-06T18:18:48.653Z,27.40
2018-05-06T18:21:16.936Z,27.65
2018-05-06T18:23:45.222Z,27.86
2018-05-06T18:26:13.489Z,27.80
2018-05-06T18:28:41.774Z,28.52
2018-05-06T18:31:10.058Z,28.34
2018-05-06T18:33:38.331Z,27.99
2018-05-06T18:36:06.606Z,28.89
2018-05-06T18:38:34.874Z,28.71
2018-05-06T18:41:03.154Z,28.47
2018-05-06T18:43:31.421Z,28.48
2018-05-06T18:45:59.726Z,28.90
2018-05-06T18:48:27.997Z,29.07
2018-05-06T18:50:56.261Z,29.16
2018-05-06T18:53:24.541Z,29.37
2018-05-06T18:55:52.812Z,29.26
2018-05-06T18:58:21.089Z,29.49
2018-05-06T19:00:49.361Z,29.78
2018-05-06T19:03:17.641Z,29.82
2018-05-06T19:05:45.916Z,30.01
2018-05-06T19:08:14.206Z,30.07
2018-05-06T19:10:42.473Z,30.29
2018-05-06T19:13:10.738Z,30.33
2018-05-06T19:15:39.023Z,30.78
2018-05-06T19:18:07.299Z,30.89
2018-05-06T19:20:35.649Z,30.84
2018-05-06T19:23:03.914Z,30.88
2018-05-06T19:25:32.198Z,31.05
2018-05-06T19:28:00.466Z,31.61
2018-05-06T19:30:28.754Z,31.54
2018-05-06T19:32:57.044Z,31.26
2018-05-06T19:35:25.334Z,31.52
2018-05-06T19:37:53.691Z,31.77
2018-05-06T19:40:21.882Z,31.72
2018-05-06T19:42:50.177Z,32.01
2018-05-06T19:45:18.441Z,31.95
2018-05-06T19:47:46.721Z,32.55
2018-05-06T19:50:15.017Z,31.98
2018-05-06T19:52:43.286Z,32.41
2018-05-06T19:55:11.561Z,32.30
2018-05-06T19:57:39.829Z,32.56
2018-05-06T20:00:08.106Z,32.98
2018-05-06T20:02:36.373Z,32.30
2018-05-06T20:05:04.661Z,32.67
2018-05-06T20:07:32.933Z,33.27
2018-05-06T20:10:01.209Z,33.42
2018-05-06T20:12:29.487Z,32.92
2018-05-06T20:14:57.758Z,33.28
2018-05-06T20:17:26.030Z,33.83
2018-05-06T20:19:54.305Z,33.88
2018-05-06T20:22:22.579Z,33.64
2018-05-06T20:24:50.862Z,34.16
2018-05-06T20:27:19.129Z,33.86
2018-05-06T20:29:47.441Z,34.75
2018-05-06T20:32:15.723Z,36.13
2018-05-06T20:34:43.987Z,34.83
2018-05-06T20:37:12.268Z,36.27
2018-05-06T20:39:40.554Z,36.29
2018-05-06T20:42:08.838Z,35.80
2018-05-06T20:44:37.106Z,36.21
2018-05-06T20:47:05.393Z,36.05
2018-05-06T20:49:33.657Z,36.46
2018-05-06T20:52:01.971Z,36.10
2018-05-06T20:54:30.245Z,36.16
2018-05-06T20:56:58.617Z,36.32
2018-05-06T20:59:26.877Z,36.76
2018-05-06T21:01:55.157Z,37.19
2018-05-06T21:04:23.440Z,36.45
2018-05-06T21:06:51.722Z,36.71
2018-05-06T21:09:19.996Z,36.31
2018-05-06T21:11:48.295Z,36.63
2018-05-06T21:14:16.571Z,36.45
2018-05-06T21:16:44.841Z,36.79
2018-05-06T21:19:13.190Z,36.98
2018-05-06T21:21:41.386Z,37.51
2018-05-06T21:24:09.658Z,37.67
2018-05-06T21:26:37.925Z,37.90
2018-05-06T21:29:06.198Z,37.38
2018-05-06T21:31:34.469Z,36.82
2018-05-06T21:34:02.734Z,37.53
2018-05-06T21:36:31.022Z,38.15
2018-05-06T21:38:59.292Z,37.16
2018-05-06T21:41:27.561Z,37.59
2018-05-06T21:43:55.835Z,37.31
2018-05-06T21:46:24.106Z,37.48
2018-05-06T21:48:52.373Z,38.42
2018-05-06T21:51:20.739Z,38.66
2018-05-06T21:53:49.017Z,39.05
2018-05-06T21:56:17.292Z,38.75
2018-05-06T21:58:45.558Z,38.60
2018-05-06T22:01:20.795Z,38.74
2018-05-06T22:03:49.062Z,37.63
2018-05-06T22:06:17.334Z,38.14
2018-05-06T22:08:45.707Z,38.27
2018-05-06T22:11:13.994Z,38.05
2018-05-06T22:13:42.359Z,38.32
2018-05-06T22:16:10.625Z,38.23
2018-05-06T22:18:38.989Z,38.55
2018-05-06T22:21:10.294Z,38.44
2018-05-06T22:23:38.570Z,38.77
2018-05-06T22:26:06.873Z,38.37
2018-05-06T22:28:35.155Z,39.37
2018-05-06T22:31:03.417Z,38.94
2018-05-06T22:33:31.686Z,39.27
2018-05-06T22:35:59.961Z,38.96
2018-05-06T22:38:28.237Z,39.66
2018-05-06T22:40:56.522Z,39.39
2018-05-06T22:43:24.785Z,39.41
2018-05-06T22:45:53.068Z,39.21
2018-05-06T22:48:21.330Z,39.30
2018-05-06T22:50:49.598Z,39.07
2018-05-06T22:53:17.870Z,39.75
2018-05-06T22:55:46.146Z,39.25
2018-05-06T22:58:14.432Z,39.42
2018-05-06T23:00:42.703Z,39.91
2018-05-06T23:03:10.985Z,39.70
2018-05-06T23:05:39.357Z,39.78
2018-05-06T23:08:07.523Z,40.07
2018-05-06T23:10:35.802Z,40.16
2018-05-06T23:13:04.081Z,40.36
2018-05-06T23:15:32.366Z,39.93
2018-05-06T23:18:00.629Z,40.41
2018-05-06T23:20:28.920Z,40.39
2018-05-06T23:22:57.182Z,40.40
2018-05-06T23:25:25.446Z,40.87
2018-05-06T23:27:53.722Z,40.88
2018-05-06T23:30:21.990Z,40.61
2018-05-06T23:32:50.261Z,40.71
2018-05-06T23:35:18.529Z,41.04
2018-05-06T23:37:46.805Z,40.67
2018-05-06T23:40:15.069Z,40.45
2018-05-06T23:42:43.333Z,40.22
2018-05-06T23:45:11.614Z,41.25
2018-05-06T23:47:39.885Z,41.11
2018-05-06T23:50:08.158Z,40.86
2018-05-06T23:52:36.427Z,42.16
2018-05-06T23:55:04.722Z,41.84
2018-05-06T23:57:32.986Z,42.88
